createdAt,value
2018-06-28T00:00:25.624Z,99.90
2018-06-28T00:02:55.008Z,99.90
2018-06-28T00:05:24.347Z,99.90
2018-06-28T00:10:22.574Z,99.90
2018-06-28T00:12:51.978Z,99.90
2018-06-28T00:15:21.339Z,99.90
2018-06-28T00:20:19.494Z,99.90
2018-06-28T00:22:48.879Z,99.90
2018-06-28T00:25:18.229Z,99.90
2018-06-28T00:27:47.531Z,99.90
2018-06-28T00:37:43.288Z,99.90
2018-06-28T00:40:12.709Z,99.90
2018-06-28T00:42:42.119Z,99.90
2018-06-28T00:45:11.504Z,99.90
2018-06-28T00:50:09.659Z,99.90
2018-06-28T00:52:39.015Z,99.90
2018-06-28T00:55:08.339Z,99.90
2018-06-28T00:57:37.649Z,99.90
2018-06-28T01:00:07.297Z,99.90
2018-06-28T01:02:36.632Z,99.90
2018-06-28T01:05:06.174Z,99.90
2018-06-28T01:07:36.114Z,99.90
2018-06-28T01:10:05.524Z,99.90
2018-06-28T01:15:03.967Z,99.90
2018-06-28T01:17:33.375Z,99.90
2018-06-28T01:20:02.829Z,99.90
2018-06-28T01:25:00.984Z,99.90
2018-06-28T01:27:30.331Z,99.80
2018-06-28T01:34:57.170Z,99.60
2018-06-28T01:37:26.520Z,99.50
2018-06-28T01:39:55.893Z,99.40
2018-06-28T01:46:02.047Z,99.30
2018-06-28T01:48:31.436Z,99.30
2018-06-28T01:51:00.883Z,99.20
2018-06-28T01:53:30.359Z,99.00
2018-06-28T01:55:59.702Z,99.00
2018-06-28T01:58:29.138Z,98.80
2018-06-28T02:00:58.539Z,98.90
2018-06-28T02:03:28.047Z,99.00
2018-06-28T02:05:57.538Z,98.90
2018-06-28T02:08:26.857Z,98.60
2018-06-28T02:10:56.226Z,99.00
2018-06-28T02:13:25.621Z,99.00
2018-06-28T02:15:55.065Z,99.60
2018-06-28T02:18:24.503Z,99.50
2018-06-28T02:20:53.858Z,99.90
2018-06-28T02:23:23.208Z,99.70
2018-06-28T02:25:52.566Z,99.90
2018-06-28T02:28:21.959Z,99.90
2018-06-28T02:30:51.300Z,99.90
2018-06-28T02:33:20.610Z,99.90
2018-06-28T02:35:49.993Z,99.90
2018-06-28T02:38:19.303Z,99.90
2018-06-28T02:40:48.650Z,99.90
2018-06-28T02:43:17.986Z,99.90
2018-06-28T02:45:47.299Z,99.90
2018-06-28T02:48:16.622Z,99.90
2018-06-28T02:50:45.951Z,99.90
2018-06-28T02:53:15.308Z,99.90
2018-06-28T02:55:44.742Z,99.90
2018-06-28T03:00:43.446Z,99.90
2018-06-28T03:03:12.904Z,99.90
2018-06-28T03:05:42.281Z,99.90
2018-06-28T03:08:11.626Z,99.90
2018-06-28T03:10:40.970Z,99.90
2018-06-28T03:13:10.313Z,99.90
2018-06-28T03:15:39.650Z,99.90
2018-06-28T03:18:09.033Z,99.90
2018-06-28T03:20:38.462Z,99.90
2018-06-28T03:28:05.416Z,99.90
2018-06-28T03:30:34.817Z,99.90
2018-06-28T03:33:04.253Z,99.90
2018-06-28T03:35:33.627Z,99.90
2018-06-28T03:38:02.958Z,99.90
2018-06-28T03:40:32.360Z,99.90
2018-06-28T03:43:01.666Z,99.90
2018-06-28T03:45:31.046Z,99.90
2018-06-28T03:50:29.207Z,99.90
2018-06-28T03:52:58.562Z,99.90
2018-06-28T03:55:28.785Z,99.90
2018-06-28T03:57:58.914Z,99.90
2018-06-28T04:00:28.299Z,99.90
2018-06-28T04:02:58.014Z,99.90
2018-06-28T04:05:27.414Z,99.90
2018-06-28T04:07:56.710Z,99.90
2018-06-28T04:10:26.127Z,99.90
2018-06-28T04:12:55.558Z,99.90
2018-06-28T04:15:24.991Z,99.90
2018-06-28T04:17:54.324Z,99.90
2018-06-28T04:20:23.680Z,99.90
2018-06-28T04:22:53.080Z,99.90
2018-06-28T04:25:22.465Z,99.90
2018-06-28T04:27:51.864Z,99.90
2018-06-28T04:30:21.255Z,99.90
2018-06-28T04:32:50.577Z,99.90
2018-06-28T04:35:19.934Z,99.90
2018-06-28T04:37:49.223Z,99.90
2018-06-28T04:40:18.714Z,99.90
2018-06-28T04:42:48.072Z,99.90
2018-06-28T04:45:17.395Z,99.90
2018-06-28T04:47:46.690Z,99.90
2018-06-28T04:50:16.066Z,99.90
2018-06-28T04:52:45.506Z,99.90
2018-06-28T04:55:14.855Z,99.90
2018-06-28T04:57:44.254Z,99.90
2018-06-28T05:00:13.647Z,99.90
2018-06-28T05:02:43.008Z,99.90
2018-06-28T05:05:12.402Z,99.90
2018-06-28T05:07:41.746Z,99.90
2018-06-28T05:12:39.942Z,99.90
2018-06-28T05:15:09.263Z,99.90
2018-06-28T05:17:38.593Z,99.90
2018-06-28T05:20:07.939Z,99.90
2018-06-28T05:22:37.256Z,99.90
2018-06-28T05:25:07.139Z,99.90
2018-06-28T05:30:05.706Z,99.90
2018-06-28T05:32:35.258Z,99.90
2018-06-28T05:35:04.867Z,99.90
2018-06-28T05:37:34.413Z,99.90
2018-06-28T05:40:03.795Z,99.90
2018-06-28T05:42:33.179Z,99.90
2018-06-28T05:45:02.623Z,99.90
2018-06-28T05:47:31.989Z,99.90
2018-06-28T05:50:01.322Z,99.90
2018-06-28T05:52:30.774Z,99.90
2018-06-28T05:57:28.923Z,99.90
2018-06-28T05:59:58.298Z,99.90
2018-06-28T06:02:27.793Z,99.90
2018-06-28T06:04:57.193Z,99.90
2018-06-28T06:07:26.616Z,99.90
2018-06-28T06:09:56.008Z,99.90
2018-06-28T06:12:25.387Z,99.90
2018-06-28T06:14:54.936Z,99.90
2018-06-28T06:17:24.323Z,99.90
2018-06-28T06:19:53.688Z,99.90
2018-06-28T06:24:52.077Z,99.90
2018-06-28T06:27:21.443Z,99.90
2018-06-28T06:29:50.806Z,99.90
2018-06-28T06:32:20.178Z,99.90
2018-06-28T06:34:49.654Z,99.90
2018-06-28T06:37:19.046Z,99.90
2018-06-28T06:39:48.394Z,99.90
2018-06-28T06:44:48.231Z,99.90
2018-06-28T06:47:17.570Z,99.90
2018-06-28T06:49:47.029Z,99.90
2018-06-28T06:54:46.524Z,99.90
2018-06-28T06:57:16.082Z,99.90
2018-06-28T06:59:45.434Z,99.90
2018-06-28T07:02:14.816Z,99.90
2018-06-28T07:04:44.186Z,99.90
2018-06-28T07:07:13.546Z,99.90
2018-06-28T07:09:42.965Z,99.90
2018-06-28T07:14:41.140Z,99.90
2018-06-28T07:17:10.503Z,99.90
2018-06-28T07:19:39.876Z,99.90
2018-06-28T07:22:09.237Z,99.90
2018-06-28T07:24:38.595Z,99.90
2018-06-28T07:27:07.969Z,99.90
2018-06-28T07:29:37.243Z,99.90
2018-06-28T07:32:06.563Z,99.90
2018-06-28T07:37:04.854Z,99.90
2018-06-28T07:39:34.891Z,99.90
2018-06-28T07:42:04.499Z,99.90
2018-06-28T07:44:34.050Z,99.90
2018-06-28T07:47:03.447Z,99.90
2018-06-28T07:49:32.760Z,99.90
2018-06-28T07:52:02.251Z,99.90
2018-06-28T07:54:31.624Z,99.90
2018-06-28T07:57:01.142Z,99.90
2018-06-28T07:59:30.570Z,99.90
2018-06-28T08:02:00.017Z,99.90
2018-06-28T08:04:30.083Z,99.90
2018-06-28T08:06:59.584Z,99.90
2018-06-28T08:09:28.987Z,99.90
2018-06-28T08:11:58.390Z,99.90
2018-06-28T08:14:27.747Z,99.90
2018-06-28T08:16:57.210Z,99.90
2018-06-28T08:19:28.392Z,99.90
2018-06-28T08:24:26.530Z,99.90
2018-06-28T08:26:56.444Z,99.90
2018-06-28T08:29:27.443Z,99.90
2018-06-28T08:31:57.606Z,99.90
2018-06-28T08:34:27.010Z,99.90
2018-06-28T08:36:58.102Z,99.90
2018-06-28T08:39:27.550Z,99.90
2018-06-28T08:41:57.854Z,99.90
2018-06-28T08:44:28.113Z,99.90
2018-06-28T08:49:26.387Z,99.90
2018-06-28T08:51:55.722Z,99.90
2018-06-28T08:56:54.042Z,99.90
2018-06-28T08:59:23.588Z,99.90
2018-06-28T09:01:53.199Z,99.90
2018-06-28T09:04:22.690Z,99.90
2018-06-28T09:06:52.230Z,99.90
2018-06-28T09:09:21.594Z,99.90
2018-06-28T09:11:50.983Z,99.90
2018-06-28T09:14:20.349Z,99.90
2018-06-28T09:21:47.735Z,99.90
2018-06-28T09:24:17.109Z,99.90
2018-06-28T09:26:46.454Z,99.90
2018-06-28T09:29:15.792Z,99.90
2018-06-28T09:31:45.211Z,99.90
2018-06-28T09:34:14.802Z,99.90
2018-06-28T09:36:46.979Z,99.90
2018-06-28T09:39:17.140Z,99.90
2018-06-28T09:44:15.712Z,99.90
2018-06-28T09:46:45.226Z,99.90
2018-06-28T09:49:14.613Z,99.90
2018-06-28T09:51:44.007Z,99.90
2018-06-28T09:54:13.520Z,99.90
2018-06-28T09:56:45.285Z,99.90
2018-06-28T09:59:14.752Z,99.90
2018-06-28T10:01:44.113Z,99.90
2018-06-28T10:04:13.663Z,99.90
2018-06-28T10:06:46.672Z,99.90
2018-06-28T10:09:17.907Z,99.90
2018-06-28T10:11:47.228Z,99.90
2018-06-28T10:14:16.539Z,99.90
2018-06-28T10:16:45.904Z,99.90
2018-06-28T10:19:15.315Z,99.90
2018-06-28T10:21:44.905Z,99.50
2018-06-28T10:24:14.235Z,99.40
2018-06-28T10:26:43.699Z,99.40
2018-06-28T10:29:13.131Z,98.80
2018-06-28T10:31:42.504Z,98.00
2018-06-28T10:34:11.927Z,97.10
2018-06-28T10:36:41.239Z,96.70
2018-06-28T10:39:11.919Z,96.30
2018-06-28T10:41:41.382Z,96.40
2018-06-28T10:44:10.793Z,96.00
2018-06-28T10:46:40.135Z,95.90
2018-06-28T10:49:09.663Z,95.80
2018-06-28T10:51:39.000Z,95.70
2018-06-28T10:54:09.722Z,95.60
2018-06-28T10:56:39.103Z,94.80
2018-06-28T10:59:08.435Z,95.20
2018-06-28T11:01:38.050Z,93.80
2018-06-28T11:04:07.424Z,93.30
2018-06-28T11:06:36.781Z,93.50
2018-06-28T11:09:09.592Z,93.20
2018-06-28T11:11:39.665Z,92.40
2018-06-28T11:14:09.529Z,92.30
2018-06-28T11:16:39.147Z,92.10
2018-06-28T11:19:08.675Z,91.90
2018-06-28T11:21:38.788Z,91.50
2018-06-28T11:24:08.183Z,91.30
2018-06-28T11:26:37.582Z,90.80
2018-06-28T11:29:07.441Z,90.90
2018-06-28T11:31:36.828Z,90.80
2018-06-28T11:34:06.659Z,90.40
2018-06-28T11:36:35.945Z,90.50
2018-06-28T11:39:08.091Z,90.70
2018-06-28T11:41:37.674Z,90.60
2018-06-28T11:44:07.046Z,90.80
2018-06-28T11:46:36.496Z,90.90
2018-06-28T11:49:07.072Z,90.80
2018-06-28T11:51:36.643Z,91.40
2018-06-28T11:54:06.187Z,91.00
2018-06-28T11:56:35.656Z,91.20
2018-06-28T11:59:05.154Z,90.90
2018-06-28T12:01:34.596Z,91.00
2018-06-28T12:04:04.832Z,91.10
2018-06-28T12:06:34.285Z,91.30
2018-06-28T12:09:06.954Z,91.60
2018-06-28T12:11:36.248Z,91.20
2018-06-28T12:14:05.664Z,91.20
2018-06-28T12:16:35.162Z,90.70
2018-06-28T12:19:04.542Z,90.50
2018-06-28T12:21:33.971Z,90.80
2018-06-28T12:24:04.463Z,91.30
2018-06-28T12:26:33.824Z,91.40
2018-06-28T12:31:32.507Z,91.60
2018-06-28T12:34:01.851Z,91.90
2018-06-28T12:36:31.296Z,92.20
2018-06-28T12:39:00.728Z,92.40
2018-06-28T12:41:30.154Z,92.70
2018-06-28T12:43:59.578Z,93.20
2018-06-28T12:47:39.847Z,92.90
2018-06-28T12:50:09.335Z,92.80
2018-06-28T12:53:07.998Z,92.60
2018-06-28T12:58:11.581Z,93.50
2018-06-28T13:00:41.033Z,93.50
2018-06-28T13:03:10.531Z,93.30
2018-06-28T13:08:08.748Z,93.70
2018-06-28T13:10:38.051Z,93.90
2018-06-28T13:13:07.449Z,93.90
2018-06-28T13:18:05.608Z,94.20
2018-06-28T13:23:03.961Z,94.60
2018-06-28T13:25:33.569Z,94.80
2018-06-28T13:28:03.695Z,94.40
2018-06-28T13:30:33.098Z,94.30
2018-06-28T13:33:02.860Z,94.20
2018-06-28T13:35:34.707Z,94.40
2018-06-28T13:38:04.169Z,94.20
2018-06-28T13:40:33.712Z,94.40
2018-06-28T13:43:03.237Z,94.50
2018-06-28T13:45:32.686Z,94.50
2018-06-28T13:48:11.204Z,94.50
2018-06-28T13:50:40.607Z,94.20
2018-06-28T13:53:10.247Z,93.70
2018-06-28T13:55:39.597Z,93.50
2018-06-28T13:58:09.134Z,93.20
2018-06-28T14:00:39.028Z,92.40
2018-06-28T14:03:08.597Z,91.90
2018-06-28T14:06:00.377Z,93.20
2018-06-28T14:08:30.206Z,93.20
2018-06-28T14:10:59.622Z,93.70
2018-06-28T14:13:28.966Z,93.00
2018-06-28T14:15:58.326Z,92.50
2018-06-28T14:18:27.645Z,93.30
2018-06-28T14:20:57.109Z,93.70
2018-06-28T14:23:26.471Z,94.60
2018-06-28T14:25:55.894Z,94.90
2018-06-28T14:28:25.236Z,96.30
2018-06-28T14:30:54.620Z,97.00
2018-06-28T14:33:23.982Z,95.90
2018-06-28T14:35:53.552Z,95.60
2018-06-28T14:38:23.828Z,94.50
2018-06-28T14:43:22.278Z,93.70
2018-06-28T14:45:51.798Z,91.50
2018-06-28T14:48:21.273Z,91.10
2018-06-28T14:50:50.615Z,91.40
2018-06-28T14:53:20.090Z,91.20
2018-06-28T14:55:49.398Z,90.80
2018-06-28T14:58:18.774Z,88.70
2018-06-28T15:00:48.134Z,88.70
2018-06-28T15:03:17.513Z,87.70
2018-06-28T15:05:47.190Z,88.50
2018-06-28T15:08:16.546Z,89.80
2018-06-28T15:10:45.881Z,90.40
2018-06-28T15:13:15.233Z,91.50
2018-06-28T15:15:44.527Z,92.50
2018-06-28T15:18:14.032Z,93.20
2018-06-28T15:20:43.407Z,93.80
2018-06-28T15:23:12.794Z,94.10
2018-06-28T15:25:42.183Z,94.10
2018-06-28T15:28:11.565Z,94.00
2018-06-28T15:30:41.165Z,93.60
2018-06-28T15:33:10.682Z,94.10
2018-06-28T15:35:40.013Z,94.50
2018-06-28T15:40:38.257Z,95.10
2018-06-28T15:43:07.617Z,95.50
2018-06-28T15:45:36.915Z,95.40
2018-06-28T15:48:06.222Z,95.50
2018-06-28T15:50:35.607Z,95.40
2018-06-28T15:53:05.162Z,95.30
2018-06-28T15:55:34.551Z,95.20
2018-06-28T15:58:03.986Z,94.80
2018-06-28T16:00:33.350Z,94.60
2018-06-28T16:03:02.752Z,94.90
2018-06-28T16:05:32.416Z,95.30
2018-06-28T16:08:01.758Z,95.30
2018-06-28T16:10:31.170Z,95.20
2018-06-28T16:13:00.908Z,94.00
2018-06-28T16:15:30.298Z,94.60
2018-06-28T16:17:59.704Z,94.90
2018-06-28T16:20:29.117Z,95.00
2018-06-28T16:22:58.446Z,95.00
2018-06-28T16:25:27.842Z,95.60
2018-06-28T16:27:57.385Z,95.80
2018-06-28T16:30:26.814Z,96.20
2018-06-28T16:32:56.382Z,96.80
2018-06-28T16:35:25.819Z,96.80
2018-06-28T16:37:55.378Z,96.70
2018-06-28T16:42:53.854Z,95.80
2018-06-28T16:45:23.430Z,95.60
2018-06-28T16:47:52.800Z,95.70
2018-06-28T16:50:22.183Z,95.70
2018-06-28T16:52:51.563Z,95.30
2018-06-28T16:55:20.978Z,95.20
2018-06-28T16:57:50.432Z,95.00
2018-06-28T17:00:19.864Z,95.10
2018-06-28T17:02:49.229Z,95.30
2018-06-28T17:05:18.579Z,94.90
2018-06-28T17:07:48.039Z,94.20
2018-06-28T17:10:17.557Z,93.90
2018-06-28T17:12:46.895Z,93.70
2018-06-28T17:15:16.307Z,93.40
2018-06-28T17:17:45.708Z,93.20
2018-06-28T17:20:15.099Z,93.20
2018-06-28T17:22:44.448Z,93.20
2018-06-28T17:25:13.953Z,93.50
2018-06-28T17:27:43.321Z,93.90
2018-06-28T17:30:12.822Z,93.60
2018-06-28T17:32:42.174Z,93.60
2018-06-28T17:35:11.514Z,93.60
2018-06-28T17:37:40.859Z,93.90
2018-06-28T17:40:11.187Z,94.50
2018-06-28T17:42:40.621Z,94.90
2018-06-28T17:45:09.985Z,94.90
2018-06-28T17:47:39.462Z,95.60
2018-06-28T17:50:08.935Z,96.00
2018-06-28T17:52:39.359Z,96.30
2018-06-28T17:55:08.823Z,96.60
2018-06-28T17:57:38.246Z,97.10
2018-06-28T18:00:08.063Z,96.60
2018-06-28T18:02:38.060Z,97.30
2018-06-28T18:05:07.390Z,98.00
2018-06-28T18:07:36.773Z,97.40
2018-06-28T18:10:06.285Z,97.80
2018-06-28T18:12:35.633Z,97.80
2018-06-28T18:15:05.298Z,98.70
2018-06-28T18:17:34.672Z,99.00
2018-06-28T18:20:04.168Z,99.70
2018-06-28T18:27:31.175Z,99.90
2018-06-28T18:30:00.553Z,99.90
2018-06-28T18:32:29.946Z,99.90
2018-06-28T18:39:57.038Z,99.50
2018-06-28T18:42:26.530Z,99.90
2018-06-28T18:44:56.807Z,99.90
2018-06-28T18:47:26.737Z,99.90
2018-06-28T18:52:25.875Z,99.90
2018-06-28T18:54:55.495Z,99.90
2018-06-28T18:57:25.117Z,99.90
2018-06-28T18:59:54.484Z,99.90
2018-06-28T19:04:52.823Z,99.90
2018-06-28T19:07:22.797Z,99.90
2018-06-28T19:09:57.214Z,99.90
2018-06-28T19:15:01.675Z,99.90
2018-06-28T19:17:31.139Z,99.90
2018-06-28T19:20:00.451Z,99.90
2018-06-28T19:22:34.858Z,99.90
2018-06-28T19:25:04.283Z,99.90
2018-06-28T19:27:33.700Z,99.90
2018-06-28T19:32:37.186Z,99.90
2018-06-28T19:35:06.534Z,99.90
2018-06-28T19:37:41.017Z,99.90
2018-06-28T19:40:15.421Z,99.90
2018-06-28T19:42:49.918Z,99.90
2018-06-28T19:45:21.190Z,99.90
2018-06-28T19:47:50.662Z,99.90
2018-06-28T19:50:24.908Z,99.90
2018-06-28T19:53:11.595Z,99.90
2018-06-28T19:55:40.986Z,99.90
2018-06-28T19:58:12.382Z,99.90
2018-06-28T20:00:46.742Z,99.90
2018-06-28T20:03:21.065Z,99.90
2018-06-28T20:05:50.411Z,99.90
2018-06-28T20:08:19.724Z,99.90
2018-06-28T20:13:23.139Z,99.90
2018-06-28T20:15:58.095Z,99.90
2018-06-28T20:18:32.566Z,99.90
2018-06-28T20:21:02.960Z,99.90
2018-06-28T20:23:32.385Z,99.90
2018-06-28T20:26:07.098Z,99.90
2018-06-28T20:28:41.527Z,99.90
2018-06-28T20:32:16.849Z,99.90
2018-06-28T20:34:46.158Z,99.90
2018-06-28T20:37:15.580Z,99.90
2018-06-28T20:39:44.980Z,99.90
2018-06-28T20:42:14.406Z,99.90
2018-06-28T20:44:43.911Z,99.90
2018-06-28T20:47:13.407Z,99.90
2018-06-28T20:49:42.766Z,99.90
2018-06-28T20:52:12.147Z,99.90
2018-06-28T20:54:41.536Z,99.90
2018-06-28T20:57:10.906Z,99.90
2018-06-28T20:59:40.381Z,99.90
2018-06-28T21:02:09.807Z,99.90
2018-06-28T21:04:39.350Z,99.90
2018-06-28T21:07:08.798Z,99.90
2018-06-28T21:09:38.126Z,99.90
2018-06-28T21:12:07.550Z,99.90
2018-06-28T21:14:36.931Z,99.90
2018-06-28T21:17:06.388Z,99.90
2018-06-28T21:19:35.826Z,99.90
2018-06-28T21:22:05.431Z,99.90
2018-06-28T21:24:39.106Z,99.90
2018-06-28T21:30:00.239Z,99.90
2018-06-28T21:32:32.629Z,99.90
2018-06-28T21:35:03.298Z,99.90
2018-06-28T21:37:32.785Z,99.90
2018-06-28T21:40:02.641Z,99.90
2018-06-28T21:42:32.058Z,99.90
2018-06-28T21:45:01.502Z,99.90
2018-06-28T21:47:30.965Z,99.90
2018-06-28T21:50:00.406Z,99.90
2018-06-28T21:52:29.911Z,99.90
2018-06-28T21:54:59.298Z,99.90
2018-06-28T21:57:28.680Z,99.90
2018-06-28T21:59:57.992Z,99.90
2018-06-28T22:02:27.346Z,99.90
2018-06-28T22:04:56.638Z,99.90
2018-06-28T22:07:25.935Z,99.90
2018-06-28T22:09:55.281Z,99.90
2018-06-28T22:12:24.634Z,99.90
2018-06-28T22:14:53.947Z,99.90
2018-06-28T22:17:23.286Z,99.90
2018-06-28T22:19:52.635Z,99.90
2018-06-28T22:22:22.433Z,99.90
2018-06-28T22:24:51.839Z,99.90
2018-06-28T22:27:21.189Z,99.90
2018-06-28T22:29:51.667Z,99.90
2018-06-28T22:32:21.010Z,99.90
2018-06-28T22:34:51.054Z,99.90
2018-06-28T22:37:20.648Z,99.90
2018-06-28T22:39:50.099Z,99.90
2018-06-28T22:42:19.439Z,99.90
2018-06-28T22:44:48.804Z,99.90
2018-06-28T22:47:18.114Z,99.90
2018-06-28T22:49:47.403Z,99.90
2018-06-28T22:52:16.775Z,99.90
2018-06-28T22:54:46.076Z,99.90
2018-06-28T22:57:15.379Z,99.90
2018-06-28T22:59:44.826Z,99.90
2018-06-28T23:02:14.145Z,99.90
2018-06-28T23:07:12.337Z,99.90
2018-06-28T23:09:41.659Z,99.90
2018-06-28T23:12:11.097Z,99.90
2018-06-28T23:14:40.516Z,99.90
2018-06-28T23:17:09.951Z,99.90
2018-06-28T23:22:08.735Z,99.90
2018-06-28T23:24:38.007Z,99.90
2018-06-28T23:27:07.340Z,99.90
2018-06-28T23:29:36.738Z,99.90
2018-06-28T23:32:06.559Z,99.90
2018-06-28T23:34:35.870Z,99.90
2018-06-28T23:37:05.202Z,99.90
2018-06-28T23:39:34.562Z,99.90
2018-06-28T23:42:03.886Z,99.90
2018-06-28T23:44:33.282Z,99.90
2018-06-28T23:49:31.907Z,99.90
2018-06-28T23:52:01.376Z,99.90
2018-06-28T23:56:59.570Z,99.90
